Time;durP1;ratioP1;P1;durP2;ratioP2;P2;SDS_P1;SDS_P2;PMS_P1;PMS_P2;Temp;Humidity;BMP_temperature;BMP_pressure;BME280_temperature;BME280_humidity;BME280_pressure;Samples;Min_cycle;Max_cycle;Signal;HPM_P1;HPM_P2
2022/01/16 00:00:08;;;;;;;69.60;24.83;;;;;;;1.82;100.00;102287.34;5221220;28;20034;-76
2022/01/16 00:05:31;;;;;;;52.20;23.52;;;;;;;1.79;100.00;102308.94;5224725;28;20037;-77
2022/01/16 00:08:02;;;;;;;54.40;24.77;;;;;;;1.79;100.00;102290.03;5221663;28;20744;-75
2022/01/16 00:10:33;;;;;;;60.60;25.23;;;;;;;1.79;100.00;102308.09;5223286;28;20028;-79
2022/01/16 00:13:05;;;;;;;61.42;25.27;;;;;;;1.74;100.00;102304.75;5222810;28;20026;-76
2022/01/16 00:15:36;;;;;;;41.88;23.83;;;;;;;1.74;100.00;102299.59;5223702;28;20022;-76
2022/01/16 00:18:16;;;;;;;37.35;24.13;;;;;;;1.73;100.00;102301.34;5220521;28;20065;-76
2022/01/16 00:20:48;;;;;;;37.90;24.65;;;;;;;1.75;100.00;102309.06;5219232;28;20042;-75
2022/01/16 00:23:28;;;;;;;42.35;24.25;;;;;;;1.83;100.00;102302.81;5222372;28;20029;-73
2022/01/16 00:25:59;;;;;;;38.47;24.48;;;;;;;1.79;100.00;102300.34;5224213;28;20033;-77
2022/01/16 00:28:31;;;;;;;45.10;25.30;;;;;;;1.79;100.00;102287.44;5218713;28;20057;-75
2022/01/16 00:31:02;;;;;;;44.38;24.35;;;;;;;1.78;100.00;102270.22;5221026;28;20025;-79
2022/01/16 00:33:38;;;;;;;39.97;24.50;;;;;;;1.74;100.00;102269.44;5224546;28;20029;-78
2022/01/16 00:36:11;;;;;;;38.83;25.83;;;;;;;1.74;100.00;102278.94;5225456;28;20345;-79
2022/01/16 00:38:44;;;;;;;37.28;24.80;;;;;;;1.76;100.00;102285.75;5223288;28;20237;-76
2022/01/16 00:41:18;;;;;;;35.45;24.42;;;;;;;1.81;100.00;102294.25;5225049;28;20102;-77
2022/01/16 00:43:51;;;;;;;40.15;25.35;;;;;;;1.77;100.00;102292.63;5218349;28;20029;-75
2022/01/16 00:46:22;;;;;;;38.50;26.13;;;;;;;1.74;100.00;102284.94;5222077;28;20120;-78
2022/01/16 00:48:54;;;;;;;39.85;25.10;;;;;;;1.74;100.00;102281.50;5218477;28;20047;-78
2022/01/16 00:51:25;;;;;;;37.60;25.25;;;;;;;1.74;100.00;102279.78;5213934;28;20048;-77
2022/01/16 00:53:57;;;;;;;41.33;25.23;;;;;;;1.76;100.00;102290.94;5219246;28;20512;-74
2022/01/16 00:56:28;;;;;;;42.08;25.77;;;;;;;1.78;100.00;102284.00;5221029;28;20029;-75
2022/01/16 00:58:59;;;;;;;37.85;25.30;;;;;;;1.78;100.00;102255.59;5221430;28;20022;-74
2022/01/16 01:01:31;;;;;;;38.60;24.20;;;;;;;1.78;100.00;102249.53;5221124;28;20037;-76
2022/01/16 01:04:02;;;;;;;36.50;24.73;;;;;;;1.79;100.00;102248.69;5221618;28;20036;-74
2022/01/16 01:06:33;;;;;;;42.67;25.58;;;;;;;1.86;100.00;102273.47;5220814;28;20091;-76
2022/01/16 01:09:05;;;;;;;41.53;24.95;;;;;;;1.82;100.00;102253.75;5219052;28;20028;-78
2022/01/16 01:11:38;;;;;;;42.00;25.17;;;;;;;1.80;100.00;102258.97;5221034;28;20028;-76
2022/01/16 01:17:03;;;;;;;50.83;27.35;;;;;;;1.85;100.00;102264.84;5221325;28;20029;-77
2022/01/16 01:19:35;;;;;;;45.20;26.45;;;;;;;1.82;100.00;102251.16;5221402;28;20041;-79
2022/01/16 01:22:06;;;;;;;43.38;25.95;;;;;;;1.85;100.00;102266.59;5226286;28;20508;-78
2022/01/16 01:24:38;;;;;;;43.63;27.20;;;;;;;1.84;100.00;102242.50;5225141;28;20108;-75
2022/01/16 01:27:23;;;;;;;45.80;25.77;;;;;;;1.86;100.00;102253.66;5224400;28;20029;-76
2022/01/16 01:30:01;;;;;;;51.65;26.70;;;;;;;1.86;100.00;102266.56;5224236;28;20073;-77
2022/01/16 01:32:36;;;;;;;51.50;26.00;;;;;;;1.77;100.00;102246.09;5205985;28;20040;-78
2022/01/16 01:35:09;;;;;;;43.92;25.60;;;;;;;1.92;100.00;102252.63;5221933;28;20113;-75
2022/01/16 01:37:42;;;;;;;50.03;25.30;;;;;;;1.83;100.00;102204.63;5223402;28;20029;-83
2022/01/16 01:40:16;;;;;;;60.40;28.05;;;;;;;1.87;100.00;102185.56;5226134;28;20105;-78
2022/01/16 01:42:50;;;;;;;60.63;27.83;;;;;;;1.82;100.00;102168.47;5207001;28;20063;-77
2022/01/16 01:51:36;;;;;;;58.67;27.27;;;;;;;1.94;100.00;102214.69;5228157;28;20041;-75
2022/01/16 01:54:08;;;;;;;65.05;28.45;;;;;;;1.94;100.00;102227.59;5229827;28;20029;-75
2022/01/16 01:56:40;;;;;;;67.95;29.70;;;;;;;1.97;100.00;102229.22;5225850;28;20033;-77
2022/01/16 01:59:12;;;;;;;81.63;28.27;;;;;;;1.84;100.00;102242.50;5224519;28;20045;-82
2022/01/16 02:01:43;;;;;;;63.50;27.45;;;;;;;1.86;100.00;102240.72;5225627;28;20025;-79
2022/01/16 02:04:14;;;;;;;64.65;28.10;;;;;;;1.88;100.00;102253.59;5228770;28;20116;-78
2022/01/16 02:06:46;;;;;;;60.50;27.58;;;;;;;1.81;100.00;102258.06;5230165;28;20017;-80
2022/01/16 02:09:18;;;;;;;66.18;29.58;;;;;;;1.75;100.00;102260.81;5224589;28;20112;-81
2022/01/16 02:11:51;;;;;;;67.90;28.08;;;;;;;1.80;100.00;102256.38;5232841;28;20057;-79
2022/01/16 02:14:32;;;;;;;70.95;28.90;;;;;;;1.76;100.00;102262.50;5208627;28;20163;-76
2022/01/16 02:28:44;;;;;;;65.38;26.48;;;;;;;1.74;100.00;102273.75;5220689;28;20128;-77
2022/01/16 02:31:20;;;;;;;55.33;26.85;;;;;;;1.73;100.00;102280.66;5227675;28;20036;-80
2022/01/16 02:36:48;;;;;;;73.32;29.27;;;;;;;1.68;100.00;102282.53;5221453;28;20061;-79
2022/01/16 02:42:51;;;;;;;67.00;27.60;;;;;;;1.76;100.00;102279.75;5223525;28;20426;-79
2022/01/16 02:45:33;;;;;;;63.75;28.33;;;;;;;1.70;100.00;102266.09;5225956;28;20609;-78
2022/01/16 02:48:07;;;;;;;94.78;30.02;;;;;;;1.80;100.00;102271.88;5225553;28;20433;-77
2022/01/16 02:50:38;;;;;;;64.22;28.90;;;;;;;1.76;100.00;102267.69;5220134;28;20029;-78
2022/01/16 02:53:11;;;;;;;65.07;30.08;;;;;;;1.77;100.00;102260.78;5225386;28;20050;-81
2022/01/16 02:55:45;;;;;;;;;;;;;;;2.28;100.00;102255.13;5231282;28;20026;-83
2022/01/16 02:58:16;;;;;;;54.38;27.33;;;;;;;1.87;100.00;102237.25;5227980;28;19916;-77
2022/01/16 03:00:47;;;;;;;67.32;31.40;;;;;;;1.83;100.00;102227.88;5225299;28;20017;-76
2022/01/16 03:03:19;;;;;;;63.65;30.15;;;;;;;1.87;100.00;102242.41;5219594;28;20501;-80
2022/01/16 03:05:50;;;;;;;64.30;31.52;;;;;;;1.78;100.00;102214.25;5227376;28;20029;-82
2022/01/16 03:08:21;;;;;;;63.83;30.85;;;;;;;1.87;100.00;102228.66;5219196;28;20517;-83
2022/01/16 03:13:32;;;;;;;55.55;30.40;;;;;;;1.84;100.00;102195.13;5225401;28;20791;-83
2022/01/16 03:16:03;;;;;;;65.32;32.58;;;;;;;1.87;100.00;102210.56;5218307;28;20025;-83
2022/01/16 03:24:15;;;;;;;63.25;33.25;;;;;;;1.94;100.00;102207.78;5232745;28;20045;-79
2022/01/16 03:26:46;;;;;;;62.22;34.28;;;;;;;1.94;100.00;102201.75;5223343;28;20029;-80
2022/01/16 03:29:18;;;;;;;61.63;34.55;;;;;;;2.04;100.00;102205.75;5227458;28;20445;-82
2022/01/16 03:31:49;;;;;;;61.05;33.88;;;;;;;2.05;100.00;102212.66;5231680;28;20033;-81
2022/01/16 03:34:21;;;;;;;64.70;33.75;;;;;;;2.06;100.00;102204.00;5228848;28;20030;-80
2022/01/16 03:36:53;;;;;;;59.42;34.38;;;;;;;2.04;100.00;102207.50;5231755;28;20103;-81
2022/01/16 03:39:24;;;;;;;65.93;36.17;;;;;;;2.04;100.00;102200.59;5232600;28;20040;-83
2022/01/16 03:41:56;;;;;;;70.78;37.28;;;;;;;2.09;100.00;102211.69;5221638;28;20121;-79
2022/01/16 03:44:29;;;;;;;59.40;33.88;;;;;;;2.05;100.00;102204.06;5230476;28;20021;-79
2022/01/16 03:47:00;;;;;;;64.38;35.28;;;;;;;2.14;100.00;102209.81;5223635;28;20041;-80
2022/01/16 03:49:47;;;;;;;60.72;35.33;;;;;;;2.29;100.00;102192.16;5227552;28;20025;-81
2022/01/16 03:52:18;;;;;;;63.90;36.17;;;;;;;2.18;100.00;102206.25;5227523;28;20080;-81
2022/01/16 03:54:50;;;;;;;66.35;36.55;;;;;;;2.19;100.00;102207.94;5226249;28;20498;-82
2022/01/16 03:57:21;;;;;;;62.15;37.40;;;;;;;2.23;100.00;102202.69;5225960;28;20510;-82
2022/01/16 03:59:52;;;;;;;63.60;37.53;;;;;;;2.27;100.00;102206.88;5227156;28;20029;-83
2022/01/16 04:02:24;;;;;;;61.78;37.00;;;;;;;2.30;100.00;102204.19;5216850;28;20037;-76
2022/01/16 04:04:56;;;;;;;61.67;37.55;;;;;;;2.24;100.00;102205.22;5226321;28;20143;-78
2022/01/16 04:07:32;;;;;;;60.58;36.92;;;;;;;2.26;100.00;102213.78;5233316;28;20032;-81
2022/01/16 04:10:07;;;;;;;60.72;38.88;;;;;;;2.27;100.00;102214.63;5229406;28;20802;-78
2022/01/16 04:12:39;;;;;;;60.20;37.15;;;;;;;2.29;100.00;102211.13;5233211;28;20609;-83
2022/01/16 04:17:45;;;;;;;57.42;36.75;;;;;;;2.30;100.00;102201.63;5222811;28;20037;-85
2022/01/16 04:20:16;;;;;;;58.08;36.30;;;;;;;2.35;100.00;102203.19;5219810;28;20033;-80
2022/01/16 04:22:48;;;;;;;61.15;36.95;;;;;;;2.37;100.00;102206.56;5222300;28;20403;-82
2022/01/16 04:25:19;;;;;;;56.42;36.88;;;;;;;2.36;100.00;102199.72;5226461;28;20175;-81
2022/01/16 04:27:50;;;;;;;53.67;35.25;;;;;;;2.34;100.00;102203.22;5221892;28;20030;-79
2022/01/16 04:30:22;;;;;;;53.10;36.17;;;;;;;2.30;100.00;102196.44;5223852;28;20033;-84
2022/01/16 04:32:53;;;;;;;64.55;38.58;;;;;;;2.33;100.00;102209.28;5231800;28;20033;-78
2022/01/16 04:35:25;;;;;;;58.05;37.67;;;;;;;2.36;100.00;102196.28;5220277;28;20462;-78
2022/01/16 04:37:56;;;;;;;55.05;36.10;;;;;;;2.37;100.00;102201.41;5220817;28;20378;-79
2022/01/16 04:40:28;;;;;;;53.92;36.85;;;;;;;2.38;100.00;102207.41;5221845;28;20048;-76
2022/01/16 04:45:49;;;;;;;57.10;38.47;;;;;;;2.37;100.00;102190.22;5221087;28;20037;-77
2022/01/16 04:48:21;;;;;;;55.35;36.75;;;;;;;2.38;100.00;102186.72;5225649;28;20957;-74
2022/01/16 04:50:52;;;;;;;56.78;37.60;;;;;;;2.37;100.00;102191.06;5232283;28;20446;-75
2022/01/16 04:53:23;;;;;;;57.03;36.33;;;;;;;2.39;100.00;102189.28;5228569;28;20410;-75
2022/01/16 04:55:55;;;;;;;58.55;37.65;;;;;;;2.38;100.00;102190.16;5233750;28;20953;-75
2022/01/16 04:58:26;;;;;;;55.97;37.25;;;;;;;2.39;100.00;102184.09;5232576;28;20087;-75
2022/01/16 05:00:58;;;;;;;64.03;39.90;;;;;;;2.41;100.00;102184.06;5231479;28;20029;-74
2022/01/16 05:03:30;;;;;;;54.08;38.15;;;;;;;2.42;100.00;102188.31;5232270;28;20451;-75
2022/01/16 05:06:03;;;;;;;55.22;37.78;;;;;;;2.44;100.00;102184.81;5232657;28;20403;-75
2022/01/16 05:08:34;;;;;;;56.08;37.72;;;;;;;2.44;100.00;102174.47;5246473;23;20065;-74
2022/01/16 05:11:08;;;;;;;59.38;39.13;;;;;;;2.48;100.00;102169.22;5227213;28;20087;-74
2022/01/16 05:19:01;;;;;;;55.92;38.63;;;;;;;2.50;100.00;102181.22;5233536;28;20116;-74
2022/01/16 05:21:33;;;;;;;64.03;41.00;;;;;;;2.54;100.00;102164.69;5233065;28;20036;-74
2022/01/16 05:24:09;;;;;;;55.70;40.33;;;;;;;2.54;100.00;102171.59;5233790;28;20029;-75
2022/01/16 05:26:43;;;;;;;62.15;40.03;;;;;;;2.57;100.00;102168.91;5233992;28;20061;-75
2022/01/16 05:29:14;;;;;;;62.88;42.17;;;;;;;2.53;100.00;102162.16;5233477;28;20022;-74
2022/01/16 05:31:45;;;;;;;58.63;39.25;;;;;;;2.59;100.00;102167.16;5233546;28;20061;-75
2022/01/16 05:34:18;;;;;;;60.15;40.28;;;;;;;2.59;100.00;102180.94;5233239;28;20052;-75
2022/01/16 05:36:49;;;;;;;57.97;40.23;;;;;;;2.57;100.00;102168.91;5233395;28;20112;-75
2022/01/16 05:39:20;;;;;;;67.00;42.47;;;;;;;2.64;100.00;102175.59;5233784;28;20542;-74
2022/01/16 05:41:52;;;;;;;59.28;40.15;;;;;;;2.65;100.00;102179.88;5233131;28;20112;-75
2022/01/16 05:44:23;;;;;;;67.22;43.53;;;;;;;2.58;100.00;102171.47;5232715;28;20049;-75
2022/01/16 05:46:54;;;;;;;65.82;42.05;;;;;;;2.68;100.00;102184.97;5234054;28;20026;-75
2022/01/16 05:49:26;;;;;;;62.78;42.15;;;;;;;2.73;100.00;102187.41;5233510;28;20064;-75
2022/01/16 05:51:57;;;;;;;62.85;43.42;;;;;;;2.71;100.00;102199.56;5232413;28;20450;-75
2022/01/16 05:54:28;;;;;;;60.38;42.30;;;;;;;2.73;100.00;102197.75;5215643;28;20474;-75
2022/01/16 05:56:59;;;;;;;64.68;43.22;;;;;;;2.70;100.00;102184.94;5232661;28;20101;-74
2022/01/16 05:59:31;;;;;;;63.10;42.22;;;;;;;2.72;100.00;102189.16;5233385;28;20103;-75
2022/01/16 06:02:03;;;;;;;65.93;44.22;;;;;;;2.80;100.00;102199.28;5233622;28;20501;-72
2022/01/16 06:04:34;;;;;;;64.57;42.88;;;;;;;2.81;100.00;102195.81;5233021;28;20114;-72
2022/01/16 06:07:06;;;;;;;67.38;45.05;;;;;;;2.82;100.00;102181.97;5232781;28;20494;-72
2022/01/16 06:09:37;;;;;;;68.13;45.88;;;;;;;2.86;100.00;102196.50;5233014;28;20079;-72
2022/01/16 06:12:09;;;;;;;63.17;45.42;;;;;;;2.90;100.00;102204.13;5233253;28;20022;-72
2022/01/16 06:14:40;;;;;;;68.07;45.63;;;;;;;2.88;100.00;102182.63;5215509;28;20030;-72
2022/01/16 06:17:11;;;;;;;69.07;48.03;;;;;;;2.91;100.00;102190.28;5232523;28;20029;-72
2022/01/16 06:19:43;;;;;;;70.18;46.67;;;;;;;2.96;100.00;102190.16;5232759;28;20091;-72
2022/01/16 06:22:14;;;;;;;68.90;45.65;;;;;;;2.99;100.00;102184.00;5215419;28;20029;-72
2022/01/16 06:24:45;;;;;;;69.00;46.30;;;;;;;2.98;100.00;102190.09;5233467;28;20037;-72
2022/01/16 06:27:17;;;;;;;68.60;46.15;;;;;;;2.95;100.00;102175.50;5232314;28;20095;-72
2022/01/16 06:29:48;;;;;;;74.63;48.55;;;;;;;3.06;100.00;102190.69;5232342;28;20029;-72
2022/01/16 06:32:19;;;;;;;72.22;46.08;;;;;;;3.08;100.00;102187.16;5233506;28;20079;-72
2022/01/16 06:34:51;;;;;;;72.10;46.63;;;;;;;3.09;100.00;102199.22;5237011;28;20234;-72
2022/01/16 06:37:22;;;;;;;69.88;46.33;;;;;;;3.12;100.00;102211.22;5235558;28;20102;-72
2022/01/16 06:39:53;;;;;;;67.90;47.50;;;;;;;3.15;100.00;102217.16;5237063;28;20018;-72
2022/01/16 06:42:25;;;;;;;71.47;47.13;;;;;;;3.22;100.00;102222.13;5235977;28;20581;-72
2022/01/16 06:44:56;;;;;;;71.30;46.10;;;;;;;3.23;100.00;102221.25;5237394;28;20030;-72
2022/01/16 06:47:27;;;;;;;68.63;47.40;;;;;;;3.28;100.00;102219.34;5217788;28;20251;-72
2022/01/16 06:49:58;;;;;;;70.15;45.33;;;;;;;3.24;100.00;102213.41;5236768;28;20018;-72
2022/01/16 06:52:30;;;;;;;71.32;46.88;;;;;;;3.31;100.00;102222.69;5236864;28;20029;-72
2022/01/16 06:55:02;;;;;;;68.63;45.60;;;;;;;3.34;100.00;102221.75;5236079;28;20397;-72
2022/01/16 06:57:33;;;;;;;68.55;45.25;;;;;;;3.22;100.00;102204.88;5236642;28;20745;-72
2022/01/16 07:00:06;;;;;;;64.03;43.75;;;;;;;3.40;100.00;102237.91;5236039;28;20128;-72
2022/01/16 07:02:38;;;;;;;;;;;;;;;3.80;100.00;102235.75;5235519;28;20450;-72
2022/01/16 07:05:10;;;;;;;65.20;41.58;;;;;;;3.40;100.00;102227.56;5235826;28;19951;-72
2022/01/16 07:07:41;;;;;;;66.50;43.08;;;;;;;3.44;100.00;102237.81;5235598;28;20061;-72
2022/01/16 07:10:13;;;;;;;65.38;43.65;;;;;;;3.48;100.00;102242.84;5236732;28;20021;-72
2022/01/16 07:12:44;;;;;;;62.83;43.05;;;;;;;3.47;100.00;102237.72;5235405;28;20041;-72
2022/01/16 07:15:16;;;;;;;67.80;43.28;;;;;;;3.50;100.00;102254.03;5236153;28;20017;-72
2022/01/16 07:17:47;;;;;;;62.30;42.08;;;;;;;3.52;100.00;102265.16;5235825;28;20036;-72
2022/01/16 07:20:18;;;;;;;63.13;40.78;;;;;;;3.57;100.00;102270.22;5234926;28;20394;-72
2022/01/16 07:22:49;;;;;;;61.97;41.75;;;;;;;3.55;100.00;102274.59;5236963;28;20569;-72
2022/01/16 07:25:21;;;;;;;59.22;39.75;;;;;;;3.56;100.00;102274.56;5235559;28;20036;-72
2022/01/16 07:27:52;;;;;;;59.20;40.83;;;;;;;3.59;100.00;102281.38;5235491;28;20037;-72
2022/01/16 07:30:23;;;;;;;59.00;39.60;;;;;;;3.64;100.00;102277.75;5235586;28;20025;-72
2022/01/16 07:32:55;;;;;;;62.90;40.25;;;;;;;3.68;100.00;102288.03;5235878;28;20036;-72
2022/01/16 07:35:26;;;;;;;61.65;39.28;;;;;;;3.65;100.00;102297.56;5235282;28;20025;-72
2022/01/16 07:37:57;;;;;;;59.55;38.22;;;;;;;3.68;100.00;102298.38;5235774;28;20246;-72
2022/01/16 07:40:29;;;;;;;56.92;39.70;;;;;;;3.72;100.00;102306.00;5236011;28;20028;-72
2022/01/16 07:43:00;;;;;;;59.00;39.88;;;;;;;3.76;100.00;102304.16;5236494;28;20022;-72
2022/01/16 07:45:32;;;;;;;54.92;36.67;;;;;;;3.80;100.00;102292.78;5234244;28;20031;-72
2022/01/16 07:48:08;;;;;;;55.50;38.22;;;;;;;3.84;100.00;102307.34;5236417;28;20052;-72
2022/01/16 07:50:39;;;;;;;56.38;37.00;;;;;;;3.84;100.00;102307.34;5235514;28;20037;-72
2022/01/16 07:53:11;;;;;;;57.72;37.30;;;;;;;3.88;100.00;102311.53;5234886;28;20402;-73
2022/01/16 07:55:45;;;;;;;61.53;39.85;;;;;;;3.95;100.00;102319.97;5236431;28;20029;-72
2022/01/16 07:58:16;;;;;;;52.00;37.63;;;;;;;3.92;100.00;102330.44;5235193;28;20029;-72
2022/01/16 08:00:48;;;;;;;55.72;37.55;;;;;;;3.91;100.00;102329.59;5235961;28;20114;-72
2022/01/16 08:03:19;;;;;;;57.75;37.97;;;;;;;3.94;100.00;102326.91;5235379;28;20060;-72
2022/01/16 08:05:50;;;;;;;61.38;38.65;;;;;;;3.98;100.00;102332.78;5235812;28;20323;-72
2022/01/16 08:08:21;;;;;;;55.25;35.78;;;;;;;3.98;100.00;102332.78;5235499;28;20049;-72
2022/01/16 08:10:53;;;;;;;58.05;38.22;;;;;;;3.99;100.00;102331.91;5234631;28;20030;-72
2022/01/16 08:13:24;;;;;;;58.72;37.58;;;;;;;4.01;100.00;102317.13;5235509;28;20017;-72
2022/01/16 08:15:55;;;;;;;58.70;36.95;;;;;;;4.03;100.00;102323.97;5235501;28;20067;-72
2022/01/16 08:18:27;;;;;;;60.53;38.65;;;;;;;3.95;100.00;102307.84;5234549;28;20120;-72
2022/01/16 08:20:58;;;;;;;55.97;35.95;;;;;;;4.04;100.00;102309.25;5235922;28;20029;-73
2022/01/16 08:23:29;;;;;;;55.00;36.47;;;;;;;4.07;100.00;102312.59;5235422;28;20048;-74
2022/01/16 08:26:01;;;;;;;56.90;37.75;;;;;;;4.10;100.00;102302.13;5233539;28;20053;-72
2022/01/16 08:28:33;;;;;;;59.65;39.15;;;;;;;4.11;100.00;102306.41;5234100;28;20036;-72
2022/01/16 08:31:04;;;;;;;54.75;36.25;;;;;;;4.08;100.00;102290.09;5235245;28;20021;-72
2022/01/16 08:33:35;;;;;;;54.85;37.15;;;;;;;4.14;100.00;102311.50;5234755;28;20025;-72
2022/01/16 08:36:06;;;;;;;56.05;37.55;;;;;;;4.21;100.00;102303.50;5233853;28;20127;-72
2022/01/16 08:38:38;;;;;;;58.65;38.08;;;;;;;4.22;100.00;102311.22;5216642;28;20033;-73
2022/01/16 08:41:09;;;;;;;57.67;37.65;;;;;;;4.17;100.00;102302.78;5216426;28;20028;-72
2022/01/16 08:43:40;;;;;;;61.75;36.72;;;;;;;4.24;100.00;102314.59;5233723;28;20120;-72
2022/01/16 08:46:13;;;;;;;62.83;37.28;;;;;;;4.25;100.00;102311.13;5216675;28;20030;-72
2022/01/16 08:48:48;;;;;;;61.93;36.87;;;;;;;4.36;100.00;102302.97;5234311;28;20134;-72
2022/01/16 08:51:21;;;;;;;56.75;37.45;;;;;;;4.29;100.00;102323.09;5234450;28;20469;-73
2022/01/16 08:53:52;;;;;;;61.88;39.17;;;;;;;4.25;100.00;102310.28;5233988;28;20064;-72
2022/01/16 08:56:23;;;;;;;62.83;39.25;;;;;;;4.32;100.00;102322.16;5233576;28;20112;-73
2022/01/16 08:58:55;;;;;;;63.13;38.63;;;;;;;4.33;100.00;102334.22;5234642;28;20021;-72
2022/01/16 09:01:26;;;;;;;61.50;38.78;;;;;;;4.37;100.00;102339.22;5233622;28;20584;-72
2022/01/16 09:03:57;;;;;;;60.40;37.85;;;;;;;4.44;100.00;102341.63;5234326;28;20257;-72
2022/01/16 09:06:29;;;;;;;62.38;38.05;;;;;;;4.45;100.00;102338.97;5234518;28;20029;-72
2022/01/16 09:09:00;;;;;;;61.58;39.22;;;;;;;4.48;100.00;102344.06;5216015;28;20053;-73
2022/01/16 09:11:31;;;;;;;60.67;38.10;;;;;;;4.54;100.00;102348.16;5233538;28;20018;-72
2022/01/16 09:14:03;;;;;;;65.90;40.47;;;;;;;4.56;100.00;102352.41;5234141;28;20040;-73
2022/01/16 09:16:34;;;;;;;68.63;38.78;;;;;;;4.56;100.00;102352.41;5233518;28;20041;-72
2022/01/16 09:19:06;;;;;;;64.70;38.35;;;;;;;4.59;100.00;102357.50;5233984;28;20033;-72
2022/01/16 09:21:37;;;;;;;68.32;41.00;;;;;;;4.59;100.00;102362.69;5233979;28;20030;-72
2022/01/16 09:24:08;;;;;;;64.75;39.88;;;;;;;4.59;100.00;102360.09;5234651;28;20056;-72
2022/01/16 09:26:40;;;;;;;68.28;41.45;;;;;;;4.63;100.00;102369.47;5232893;28;20029;-72
2022/01/16 09:29:11;;;;;;;68.82;43.03;;;;;;;4.62;100.00;102367.78;5233475;28;20027;-72
2022/01/16 09:31:42;;;;;;;77.07;43.50;;;;;;;4.64;100.00;102365.97;5216059;28;20025;-72
2022/01/16 09:34:13;;;;;;;77.07;43.78;;;;;;;4.72;100.00;102372.63;5233081;28;20037;-72
2022/01/16 09:36:45;;;;;;;73.72;43.45;;;;;;;4.78;100.00;102382.81;5232817;28;20091;-71
2022/01/16 09:39:16;;;;;;;77.95;44.47;;;;;;;4.79;100.00;102385.34;5233218;28;20031;-72
2022/01/16 09:41:47;;;;;;;79.50;44.90;;;;;;;4.77;100.00;102383.69;5234304;28;20513;-71
2022/01/16 09:44:19;;;;;;;79.72;44.60;;;;;;;4.76;100.00;102382.00;5215585;28;20083;-72
2022/01/16 09:46:50;;;;;;;86.13;46.15;;;;;;;4.80;100.00;102394.81;5230023;28;20060;-72
2022/01/16 09:49:22;;;;;;;79.97;45.00;;;;;;;4.85;100.00;102399.88;5214038;28;20405;-71
2022/01/16 09:51:53;;;;;;;83.20;45.45;;;;;;;4.84;100.00;102390.34;5233420;28;20017;-71
2022/01/16 09:54:24;;;;;;;83.95;45.85;;;;;;;4.88;100.00;102390.19;5231761;28;20080;-71
2022/01/16 09:56:56;;;;;;;92.40;47.45;;;;;;;4.93;100.00;102394.41;5232810;28;20032;-71
2022/01/16 09:59:27;;;;;;;91.10;49.20;;;;;;;4.84;100.00;102386.00;5233242;28;20025;-70
2022/01/16 10:01:58;;;;;;;89.57;47.70;;;;;;;4.90;100.00;102395.34;5232431;28;20550;-71
2022/01/16 10:04:31;;;;;;;93.75;48.47;;;;;;;4.98;100.00;102410.66;5221072;28;20160;-71
2022/01/16 10:07:05;;;;;;;87.88;46.80;;;;;;;5.03;100.00;102409.56;5227920;28;20045;-72
2022/01/16 10:09:39;;;;;;;89.28;46.80;;;;;;;5.04;100.00;102426.03;5233656;28;20484;-71
2022/01/16 10:12:18;;;;;;;88.68;47.47;;;;;;;5.08;100.00;102423.25;5234150;28;20230;-72
2022/01/16 10:14:52;;;;;;;89.95;45.40;;;;;;;5.11;100.00;102419.69;5234335;28;20047;-72
2022/01/16 10:17:24;;;;;;;92.38;45.08;;;;;;;5.07;100.00;102418.09;5235701;28;20072;-71
2022/01/16 10:20:03;;;;;;;98.03;46.78;;;;;;;5.13;100.00;102421.31;5233827;28;20056;-71
2022/01/16 10:22:43;;;;;;;92.05;46.58;;;;;;;5.19;100.00;102430.66;5235695;28;20409;-72
2022/01/16 10:25:17;;;;;;;94.07;46.72;;;;;;;5.18;100.00;102434.13;5234293;28;20030;-71
2022/01/16 10:27:48;;;;;;;94.75;46.78;;;;;;;5.20;100.00;102434.09;5235299;28;20433;-71
2022/01/16 10:30:19;;;;;;;90.35;45.05;;;;;;;5.21;100.00;102440.97;5235745;28;20025;-72
2022/01/16 10:32:50;;;;;;;94.53;45.83;;;;;;;5.25;100.00;102437.38;5234117;28;20036;-72
2022/01/16 10:35:22;;;;;;;86.22;42.53;;;;;;;5.29;100.00;102423.34;5234645;28;20029;-71
2022/01/16 10:37:57;;;;;;;78.38;41.92;;;;;;;5.30;100.00;102436.31;5234884;28;20040;-71
2022/01/16 10:40:37;;;;;;;88.03;45.17;;;;;;;5.42;100.00;102427.19;5234204;28;20036;-71
2022/01/16 10:43:15;;;;;;;87.68;44.78;;;;;;;5.41;100.00;102440.22;5232782;28;20029;-71
2022/01/16 10:45:51;;;;;;;87.97;44.15;;;;;;;5.44;100.00;102437.53;5234770;28;20052;-74
2022/01/16 10:48:26;;;;;;;87.13;44.50;;;;;;;5.48;100.00;102437.34;5235517;28;20025;-74
2022/01/16 10:50:57;;;;;;;81.32;41.90;;;;;;;5.48;100.00;102437.34;5234472;28;20024;-74
2022/01/16 10:53:31;;;;;;;83.32;43.22;;;;;;;5.59;100.00;102435.19;5231779;28;20417;-75
2022/01/16 10:56:03;;;;;;;79.55;41.92;;;;;;;5.64;100.00;102434.16;5233476;28;20026;-72
2022/01/16 10:58:34;;;;;;;78.47;40.53;;;;;;;5.67;100.00;102432.28;5235958;28;20045;-72
2022/01/16 11:01:14;;;;;;;81.23;40.60;;;;;;;5.77;100.00;102441.44;5234334;28;20026;-72
2022/01/16 11:03:51;;;;;;;76.13;41.50;;;;;;;5.78;100.00;102437.91;5236487;28;20279;-72
2022/01/16 11:06:27;;;;;;;78.00;40.22;;;;;;;5.79;100.00;102443.97;5216953;28;20048;-72
2022/01/16 11:09:03;;;;;;;84.15;41.92;;;;;;;5.68;100.00;102438.34;5250766;23;20409;-72
2022/01/16 11:11:34;;;;;;;79.38;40.28;;;;;;;5.71;100.00;102451.22;5227823;28;20044;-74
2022/01/16 11:14:06;;;;;;;79.85;41.67;;;;;;;5.72;100.00;102445.97;5235977;28;20030;-74
2022/01/16 11:16:38;;;;;;;76.32;41.00;;;;;;;5.69;100.00;102450.44;5236775;28;20615;-75
2022/01/16 11:19:10;;;;;;;77.63;41.63;;;;;;;5.69;100.00;102453.06;5233959;28;20036;-75
2022/01/16 11:21:45;;;;;;;76.18;41.03;;;;;;;5.64;100.00;102441.97;5231186;28;20033;-75
2022/01/16 11:26:52;;;;;;;76.07;40.92;;;;;;;5.70;100.00;102445.19;5236154;28;20115;-74
2022/01/16 11:29:23;;;;;;;80.45;40.35;;;;;;;5.77;100.00;102443.19;5234178;28;20029;-75
2022/01/16 11:31:57;;;;;;;74.82;38.83;;;;;;;5.76;100.00;102444.97;5235345;28;20083;-75
2022/01/16 11:34:29;;;;;;;74.20;41.40;;;;;;;5.75;100.00;102453.63;5235918;28;20033;-74
2022/01/16 11:37:00;;;;;;;78.28;41.53;;;;;;;5.71;100.00;102452.06;5233927;28;20037;-75
2022/01/16 11:39:36;;;;;;;71.45;40.42;;;;;;;5.78;100.00;102448.31;5235668;28;20027;-75
2022/01/16 11:42:20;;;;;;;70.40;38.83;;;;;;;5.85;100.00;102447.19;5234431;28;20421;-75
2022/01/16 11:44:52;;;;;;;;;;;;;;;6.27;100.00;102446.41;5232710;28;20057;-76
2022/01/16 11:47:23;;;;;;;73.22;38.95;;;;;;;5.77;100.00;102435.41;5234886;28;20017;-75
2022/01/16 11:50:07;;;;;;;73.75;39.05;;;;;;;5.90;100.00;102439.19;5232353;28;20029;-75
2022/01/16 11:52:38;;;;;;;;;;;;;;;6.21;100.00;102440.59;5233930;28;20021;-75
2022/01/16 11:55:12;;;;;;;72.65;37.35;;;;;;;5.79;100.00;102441.38;5228571;28;19927;-75
2022/01/16 11:57:56;;;;;;;68.07;36.72;;;;;;;5.84;100.00;102439.44;5229451;28;20029;-75
2022/01/16 12:00:44;;;;;;;69.28;37.67;;;;;;;5.90;100.00;102441.78;5230849;28;20501;-75
2022/01/16 12:03:35;;;;;;;71.05;38.33;;;;;;;5.92;100.00;102439.16;5232602;28;20026;-75
2022/01/16 12:06:30;;;;;;;66.00;36.63;;;;;;;5.93;100.00;102440.88;5233225;28;20438;-75
2022/01/16 12:09:04;;;;;;;64.68;35.42;;;;;;;5.75;100.00;102442.41;5232831;28;20362;-75
2022/01/16 12:11:37;;;;;;;63.42;35.95;;;;;;;5.77;100.00;102440.59;5233389;28;20024;-74
2022/01/16 12:14:08;;;;;;;;;;;;;;;6.25;100.00;102437.81;5233850;28;20033;-75
2022/01/16 12:16:43;;;;;;;63.23;35.80;;;;;;;5.85;100.00;102434.19;5233092;28;19920;-74
2022/01/16 12:19:36;;;;;;;59.05;34.63;;;;;;;6.05;100.00;102438.59;5233605;28;20272;-75
2022/01/16 12:22:09;;;;;;;58.17;33.50;;;;;;;5.80;100.00;102435.28;5232053;28;20037;-75
2022/01/16 12:24:58;;;;;;;60.55;34.90;;;;;;;5.92;100.00;102437.41;5233643;28;20040;-75
2022/01/16 12:27:44;;;;;;;57.40;32.40;;;;;;;5.93;100.00;102441.72;5232931;28;20466;-75